createdAt,value
2022-08-17T00:01:52.382Z,8.82
2022-08-17T00:04:20.690Z,11.93
2022-08-17T00:06:49.537Z,11.00
2022-08-17T00:09:18.433Z,10.57
2022-08-17T00:14:33.087Z,9.00
2022-08-17T00:16:59.867Z,11.68
2022-08-17T00:19:27.434Z,8.23
2022-08-17T00:22:31.289Z,11.23
2022-08-17T00:24:44.772Z,8.45
2022-08-17T00:27:11.484Z,10.75
2022-08-17T00:29:38.178Z,8.27
2022-08-17T00:33:11.941Z,12.32
2022-08-17T00:34:51.964Z,7.68
2022-08-17T00:37:18.684Z,9.90
2022-08-17T00:39:45.426Z,15.13
2022-08-17T00:42:14.510Z,9.00
2022-08-17T00:44:41.242Z,12.25
2022-08-17T00:47:07.999Z,7.40
2022-08-17T00:49:34.695Z,7.40
2022-08-17T00:52:11.718Z,10.88
2022-08-17T00:54:42.238Z,9.95
2022-08-17T00:57:15.176Z,8.73
2022-08-17T01:00:01.639Z,9.60
2022-08-17T01:02:41.901Z,8.02
2022-08-17T01:05:15.142Z,9.60
2022-08-17T01:07:43.497Z,10.27
2022-08-17T01:10:57.150Z,7.13
2022-08-17T01:13:02.652Z,8.90
2022-08-17T01:15:34.556Z,12.07
2022-08-17T01:18:01.259Z,10.93
2022-08-17T01:20:28.090Z,8.90
2022-08-17T01:22:55.086Z,7.30
2022-08-17T01:25:22.565Z,9.25
2022-08-17T01:27:49.982Z,10.00
2022-08-17T01:30:58.506Z,10.18
2022-08-17T01:33:05.834Z,11.52
2022-08-17T01:35:32.537Z,7.82
2022-08-17T01:37:59.282Z,8.40
2022-08-17T01:40:39.338Z,7.72
2022-08-17T01:43:11.162Z,9.32
2022-08-17T01:45:45.100Z,10.77
2022-08-17T01:48:12.798Z,8.10
2022-08-17T01:50:42.137Z,8.50
2022-08-17T01:53:14.002Z,14.70
2022-08-17T01:55:47.121Z,10.20
2022-08-17T01:58:14.094Z,8.50
2022-08-17T02:00:46.885Z,8.93
2022-08-17T02:03:27.245Z,8.75
2022-08-17T02:05:54.136Z,7.10
2022-08-17T02:08:37.154Z,15.15
2022-08-17T02:11:14.746Z,11.73
2022-08-17T02:13:43.172Z,12.18
2022-08-17T02:16:09.996Z,9.32
2022-08-17T02:18:37.070Z,14.38
2022-08-17T02:21:05.034Z,11.02
2022-08-17T02:23:35.263Z,8.23
2022-08-17T02:26:02.245Z,6.40
2022-08-17T02:28:29.551Z,9.52
2022-08-17T02:31:02.294Z,13.30
2022-08-17T02:33:41.954Z,9.80
2022-08-17T02:36:12.861Z,12.50
2022-08-17T02:38:41.253Z,9.70
2022-08-17T02:41:09.267Z,6.10
2022-08-17T02:43:36.033Z,8.68
2022-08-17T02:46:02.936Z,8.43
2022-08-17T02:48:31.820Z,9.48
2022-08-17T02:51:00.547Z,6.55
2022-08-17T02:53:27.908Z,8.30
2022-08-17T02:56:02.500Z,9.00
2022-08-17T02:58:34.314Z,10.02
2022-08-17T03:01:04.269Z,5.82
2022-08-17T03:03:31.107Z,6.75
2022-08-17T03:05:57.986Z,7.25
2022-08-17T03:08:25.606Z,11.98
2022-08-17T03:10:53.098Z,9.30
2022-08-17T03:13:20.180Z,9.52
2022-08-17T03:15:48.801Z,8.55
2022-08-17T03:18:24.345Z,12.63
2022-08-17T03:20:52.647Z,7.25
2022-08-17T03:23:24.249Z,9.15
2022-08-17T03:25:53.803Z,11.32
2022-08-17T03:28:22.167Z,17.13
2022-08-17T03:30:49.610Z,6.38
2022-08-17T03:33:17.100Z,9.45
2022-08-17T03:35:44.347Z,9.50
2022-08-17T03:38:12.532Z,7.35
2022-08-17T03:40:58.819Z,8.60
2022-08-17T03:43:29.465Z,9.57
2022-08-17T03:46:28.691Z,15.38
2022-08-17T03:49:24.455Z,11.57
2022-08-17T03:52:09.967Z,9.68
2022-08-17T03:54:55.956Z,7.40
2022-08-17T03:57:23.144Z,6.93
2022-08-17T03:59:50.056Z,8.57
2022-08-17T04:02:23.374Z,9.48
2022-08-17T04:04:54.276Z,12.48
2022-08-17T04:07:23.665Z,9.30
2022-08-17T04:09:50.695Z,7.30
2022-08-17T04:12:21.614Z,11.02
2022-08-17T04:14:52.890Z,12.25
2022-08-17T04:17:25.919Z,13.23
2022-08-17T04:19:54.002Z,10.85
2022-08-17T04:22:32.656Z,8.57
2022-08-17T04:25:08.523Z,8.23
2022-08-17T04:27:36.386Z,13.13
2022-08-17T04:30:07.007Z,14.38
2022-08-17T04:33:09.820Z,11.45
2022-08-17T04:35:42.733Z,13.68
2022-08-17T04:38:13.617Z,10.23
2022-08-17T04:40:59.263Z,8.88
2022-08-17T04:43:27.697Z,10.68
2022-08-17T04:45:58.010Z,15.07
2022-08-17T04:48:35.638Z,15.63
2022-08-17T04:51:28.132Z,13.73
2022-08-17T04:53:59.147Z,9.35
2022-08-17T04:56:28.425Z,14.82
2022-08-17T04:58:57.939Z,7.22
2022-08-17T05:01:28.171Z,12.63
2022-08-17T05:03:59.231Z,14.70
2022-08-17T05:06:27.686Z,7.07
2022-08-17T05:08:55.159Z,7.80
2022-08-17T05:11:23.606Z,8.57
2022-08-17T05:13:50.531Z,7.00
2022-08-17T05:16:19.137Z,21.00
2022-08-17T05:18:46.826Z,10.40
2022-08-17T05:21:14.317Z,11.10
2022-08-17T05:23:42.765Z,9.85
2022-08-17T05:26:26.171Z,7.53
2022-08-17T05:28:57.208Z,6.72
2022-08-17T05:31:25.427Z,8.13
2022-08-17T05:33:53.363Z,7.57
2022-08-17T05:36:37.987Z,7.43
2022-08-17T05:39:07.681Z,13.73
2022-08-17T05:41:34.484Z,6.35
2022-08-17T05:44:05.412Z,10.18
2022-08-17T05:46:39.891Z,7.03
2022-08-17T05:49:08.573Z,11.65
2022-08-17T05:51:38.276Z,11.53
2022-08-17T05:54:29.261Z,8.52
2022-08-17T05:57:15.792Z,9.13
2022-08-17T05:59:57.898Z,10.43
2022-08-17T06:02:50.929Z,8.48
2022-08-17T06:05:31.913Z,8.63
2022-08-17T06:08:12.242Z,15.70
2022-08-17T06:10:50.620Z,11.32
2022-08-17T06:13:49.346Z,10.95
2022-08-17T06:16:33.176Z,8.23
2022-08-17T06:19:16.633Z,10.75
2022-08-17T06:21:47.772Z,11.73
2022-08-17T06:24:53.234Z,10.05
2022-08-17T06:27:36.309Z,8.70
2022-08-17T06:30:11.633Z,11.45
2022-08-17T06:32:43.761Z,7.85
2022-08-17T06:35:13.723Z,8.32
2022-08-17T06:37:59.907Z,9.10
2022-08-17T06:40:59.233Z,11.27
2022-08-17T06:46:01.846Z,15.45
2022-08-17T06:49:08.042Z,11.35
2022-08-17T06:52:03.054Z,13.57
2022-08-17T06:54:38.943Z,8.13
2022-08-17T06:57:10.788Z,10.63
2022-08-17T06:59:56.439Z,9.95
2022-08-17T07:03:00.988Z,9.68
2022-08-17T07:05:53.884Z,14.93
2022-08-17T07:08:40.047Z,8.13
2022-08-17T07:11:22.048Z,10.90
2022-08-17T07:14:04.208Z,12.15
2022-08-17T07:16:33.736Z,7.53
2022-08-17T07:19:00.570Z,10.75
2022-08-17T07:21:38.622Z,11.63
2022-08-17T07:24:11.238Z,11.05
2022-08-17T07:27:07.658Z,9.32
2022-08-17T07:29:43.016Z,10.75
2022-08-17T07:32:12.071Z,8.13
2022-08-17T07:35:00.036Z,11.10
2022-08-17T07:37:27.072Z,6.60
2022-08-17T07:40:15.364Z,15.35
2022-08-17T07:42:45.113Z,13.63
2022-08-17T07:45:34.758Z,11.20
2022-08-17T07:48:20.160Z,10.30
2022-08-17T07:50:49.362Z,13.20
2022-08-17T07:53:25.855Z,9.45
2022-08-17T07:55:53.958Z,12.90
2022-08-17T07:58:23.717Z,8.77
2022-08-17T08:01:09.319Z,10.63
2022-08-17T08:03:43.097Z,7.80
2022-08-17T08:06:26.514Z,10.48
2022-08-17T08:08:56.040Z,12.02
2022-08-17T08:11:35.760Z,8.18
2022-08-17T08:14:39.781Z,12.55
2022-08-17T08:17:09.406Z,12.40
2022-08-17T08:19:36.392Z,9.13
2022-08-17T08:22:18.878Z,10.95
2022-08-17T08:25:23.248Z,6.90
2022-08-17T13:35:36.457Z,6.40
2022-08-17T13:38:10.942Z,10.02
2022-08-17T13:40:50.964Z,6.13
2022-08-17T13:43:42.873Z,7.32
2022-08-17T13:46:22.440Z,6.63
2022-08-17T13:49:09.934Z,7.85
2022-08-17T13:51:44.129Z,6.65
2022-08-17T13:58:03.503Z,9.45
2022-08-17T14:00:33.963Z,7.68
2022-08-17T14:05:30.663Z,7.97
2022-08-17T14:08:06.831Z,9.88
2022-08-17T14:10:37.004Z,12.13
2022-08-17T14:13:05.136Z,11.57
2022-08-17T14:16:32.001Z,8.67
2022-08-17T14:18:58.892Z,5.65
2022-08-17T14:21:25.805Z,10.45
2022-08-17T14:23:54.794Z,8.00
2022-08-17T14:26:21.950Z,8.80
2022-08-17T14:28:56.303Z,13.35
2022-08-17T14:31:23.554Z,6.65
2022-08-17T14:33:50.363Z,11.13
2022-08-17T14:36:18.071Z,7.07
2022-08-17T14:38:45.207Z,11.48
2022-08-17T14:41:12.103Z,6.47
2022-08-17T14:43:39.966Z,7.70
2022-08-17T14:46:07.122Z,6.78
2022-08-17T14:48:35.880Z,8.05
2022-08-17T14:51:05.090Z,8.43
2022-08-17T14:53:31.867Z,7.88
2022-08-17T14:55:59.074Z,6.68
2022-08-17T14:58:26.130Z,6.95
2022-08-17T15:00:53.489Z,6.95
2022-08-17T15:03:20.349Z,7.78
2022-08-17T15:05:47.356Z,7.97
2022-08-17T15:08:16.663Z,5.82
2022-08-17T15:10:44.877Z,10.10
2022-08-17T15:13:21.061Z,10.38
2022-08-17T15:15:48.913Z,5.88
2022-08-17T15:18:16.694Z,5.18
2022-08-17T15:20:44.468Z,9.43
2022-08-17T15:23:20.766Z,10.55
2022-08-17T15:25:49.626Z,5.65
2022-08-17T15:30:45.123Z,7.40
2022-08-17T15:33:29.477Z,6.63
2022-08-17T15:36:03.537Z,12.70
2022-08-17T15:38:35.338Z,4.97
2022-08-17T15:41:02.365Z,7.55
2022-08-17T15:43:33.890Z,15.80
2022-08-17T15:46:03.846Z,9.85
2022-08-17T15:48:42.523Z,11.23
2022-08-17T15:51:12.484Z,5.30
2022-08-17T15:53:41.250Z,10.52
2022-08-17T15:56:08.660Z,9.45
2022-08-17T15:58:36.678Z,8.27
2022-08-17T16:01:16.481Z,14.43
2022-08-17T16:04:04.680Z,7.25
2022-08-17T16:06:34.651Z,7.95
2022-08-17T16:09:01.468Z,5.50
2022-08-17T16:11:28.222Z,6.13
2022-08-17T16:13:56.203Z,8.00
2022-08-17T16:16:23.813Z,7.37
2022-08-17T16:18:53.681Z,8.27
2022-08-17T16:21:25.999Z,6.55
2022-08-17T16:24:13.430Z,8.20
2022-08-17T16:26:40.861Z,7.45
2022-08-17T16:29:08.383Z,5.68
2022-08-17T16:31:36.192Z,5.88
2022-08-17T16:34:17.696Z,10.23
2022-08-17T16:36:54.762Z,8.30
2022-08-17T16:39:29.136Z,6.35
2022-08-17T16:41:57.538Z,8.60
2022-08-17T16:44:25.871Z,6.70
2022-08-17T16:46:53.501Z,5.57
2022-08-17T16:49:35.261Z,10.75
2022-08-17T16:52:06.007Z,10.80
2022-08-17T16:54:33.538Z,9.95
2022-08-17T16:57:00.322Z,7.68
2022-08-17T16:59:31.704Z,7.05
2022-08-17T17:02:11.484Z,15.40
2022-08-17T17:04:45.921Z,8.30
2022-08-17T17:07:35.223Z,11.43
2022-08-17T17:10:10.644Z,12.05
2022-08-17T17:13:03.310Z,24.42
2022-08-17T17:15:33.114Z,20.63
2022-08-17T17:18:06.727Z,15.77
2022-08-17T17:20:45.905Z,13.75
2022-08-17T17:23:40.534Z,16.10
2022-08-17T17:26:49.393Z,11.98
2022-08-17T17:32:31.117Z,6.50
2022-08-17T17:35:07.093Z,14.88
2022-08-17T17:37:35.644Z,30.00
2022-08-17T17:40:13.436Z,23.33
2022-08-17T17:42:43.682Z,14.85
2022-08-17T17:45:35.925Z,9.25
2022-08-17T17:48:03.056Z,12.82
2022-08-17T17:50:44.744Z,18.58
2022-08-17T17:53:48.626Z,17.27
2022-08-17T17:56:43.743Z,7.10
2022-08-17T17:59:16.745Z,10.85
2022-08-17T18:01:56.781Z,18.85
2022-08-17T18:04:41.401Z,15.80
2022-08-17T18:07:15.617Z,17.42
2022-08-17T18:10:19.502Z,14.93
2022-08-17T18:13:26.636Z,12.75
2022-08-17T18:15:55.649Z,8.60
2022-08-17T18:18:37.598Z,20.50
2022-08-17T18:21:21.542Z,19.67
2022-08-17T18:23:51.257Z,21.13
2022-08-17T18:26:33.333Z,27.58
2022-08-17T18:29:01.523Z,22.48
2022-08-17T18:31:29.103Z,41.25
2022-08-17T18:37:26.542Z,35.35
2022-08-17T18:39:53.415Z,29.52
2022-08-17T18:42:29.150Z,20.98
2022-08-17T18:44:56.463Z,21.60
2022-08-17T18:47:27.610Z,31.23
2022-08-17T18:50:20.451Z,30.77
2022-08-17T18:52:48.724Z,28.23
2022-08-17T18:55:31.376Z,41.55
2022-08-17T18:58:18.262Z,32.58
2022-08-17T19:00:48.555Z,33.40
2022-08-17T19:03:18.592Z,19.33
2022-08-17T19:05:45.324Z,42.45
2022-08-17T19:08:35.150Z,35.38
2022-08-17T19:11:21.428Z,26.20
2022-08-17T19:14:09.363Z,30.77
2022-08-17T19:16:57.324Z,30.60
2022-08-17T19:19:34.269Z,31.25
2022-08-17T19:22:28.993Z,19.92
2022-08-17T19:25:19.021Z,34.72
2022-08-17T19:27:57.522Z,24.40
2022-08-17T19:30:25.205Z,14.30
2022-08-17T19:32:53.123Z,10.80
2022-08-17T19:35:22.878Z,17.23
2022-08-17T19:38:03.855Z,17.75
2022-08-17T19:40:52.839Z,24.88
2022-08-17T19:43:48.462Z,27.27
2022-08-17T19:46:15.185Z,18.25
2022-08-17T19:48:54.203Z,17.20
2022-08-17T19:51:35.763Z,19.27
2022-08-17T19:54:06.588Z,21.58
2022-08-17T19:56:41.704Z,17.25
2022-08-17T19:59:46.472Z,21.98
2022-08-17T20:02:36.699Z,13.88
2022-08-17T20:05:12.180Z,25.42
2022-08-17T20:07:41.957Z,18.27
2022-08-17T20:10:17.663Z,22.00
2022-08-17T20:12:50.612Z,11.07
2022-08-17T20:15:23.277Z,17.95
2022-08-17T20:17:50.844Z,24.17
2022-08-17T20:20:38.835Z,13.65
2022-08-17T20:23:26.552Z,15.48
2022-08-17T20:26:19.412Z,17.05
2022-08-17T20:29:14.354Z,17.73
2022-08-17T20:31:55.645Z,11.85
2022-08-17T20:34:33.403Z,11.32
2022-08-17T20:37:04.072Z,11.70
2022-08-17T20:39:38.025Z,9.88
2022-08-17T20:42:10.379Z,7.97
2022-08-17T20:44:40.381Z,20.08
2022-08-17T20:47:18.513Z,11.95
2022-08-17T20:49:45.231Z,15.93
2022-08-17T20:52:16.703Z,17.10
2022-08-17T20:54:55.961Z,19.05
2022-08-17T20:57:31.876Z,11.52
2022-08-17T21:00:04.887Z,9.52
2022-08-17T21:02:32.472Z,18.42
2022-08-17T21:05:05.449Z,10.02
2022-08-17T21:07:42.792Z,8.82
2022-08-17T21:10:13.995Z,8.45
2022-08-17T21:12:41.637Z,8.13
2022-08-17T21:15:28.652Z,12.70
2022-08-17T21:18:07.151Z,15.02
2022-08-17T21:20:49.408Z,12.52
2022-08-17T21:23:25.246Z,10.90
2022-08-17T21:26:09.176Z,7.47
2022-08-17T21:29:01.202Z,14.80
2022-08-17T21:31:40.153Z,14.18
2022-08-17T21:34:24.532Z,9.27
2022-08-17T21:36:51.532Z,13.60
2022-08-17T21:39:33.608Z,14.35
2022-08-17T21:42:01.404Z,13.52
2022-08-17T21:44:35.463Z,17.35
2022-08-17T21:47:23.812Z,12.95
2022-08-17T21:49:52.245Z,13.63
2022-08-17T21:52:22.344Z,17.33
2022-08-17T21:55:02.528Z,17.25
2022-08-17T21:57:30.997Z,12.18
2022-08-17T22:00:01.390Z,13.43
2022-08-17T22:02:37.110Z,10.88
2022-08-17T22:05:11.614Z,9.30
2022-08-17T22:07:53.304Z,20.73
2022-08-17T22:10:31.150Z,12.18
2022-08-17T22:13:16.964Z,16.13
2022-08-17T22:15:47.935Z,13.40
2022-08-17T22:18:21.726Z,8.60
2022-08-17T22:20:55.274Z,8.25
2022-08-17T22:24:01.817Z,7.82
2022-08-17T22:27:12.462Z,15.20
2022-08-17T22:29:57.076Z,7.35
2022-08-17T22:32:41.497Z,10.10
2022-08-17T22:35:29.487Z,17.40
2022-08-17T22:37:57.022Z,12.52
2022-08-17T22:40:30.539Z,13.85
2022-08-17T22:42:59.020Z,10.07
2022-08-17T22:45:31.193Z,14.25
2022-08-17T22:48:00.577Z,14.95
2022-08-17T22:50:33.067Z,8.05
2022-08-17T22:53:31.894Z,11.57
2022-08-17T22:56:17.562Z,10.23
2022-08-17T22:59:11.033Z,12.10
2022-08-17T23:01:39.213Z,11.18
2022-08-17T23:04:32.392Z,11.98
2022-08-17T23:06:59.144Z,14.27
2022-08-17T23:09:25.862Z,10.07
2022-08-17T23:11:58.817Z,10.52
2022-08-17T23:14:31.782Z,7.45
2022-08-17T23:17:02.385Z,9.13
2022-08-17T23:19:31.817Z,9.93
2022-08-17T23:22:01.795Z,9.70
2022-08-17T23:24:35.845Z,9.30
2022-08-17T23:27:07.744Z,10.32
2022-08-17T23:29:35.441Z,8.50
2022-08-17T23:32:04.789Z,13.93
2022-08-17T23:34:31.704Z,9.82
2022-08-17T23:36:58.625Z,11.70
2022-08-17T23:39:28.106Z,12.27
2022-08-17T23:41:59.549Z,10.95
2022-08-17T23:44:27.498Z,8.20
2022-08-17T23:46:54.575Z,10.55
2022-08-17T23:49:21.710Z,9.82
2022-08-17T23:51:49.138Z,10.73
2022-08-17T23:54:21.938Z,11.65
2022-08-17T23:56:48.797Z,21.08
2022-08-17T23:59:18.335Z,21.02
